Modoc, Kansas
Current Conditions -  °F | °C
As of 9:29 AM on Thursday 23 Oct 2014 (Local Time) from KGCK Reporting Station
Haze Haze  
Wind Chill: 59°   Ceiling: 600
Heat Index: 59°   Visibility: 1mi
Dew Point: 58°   Wind: 3mph
Humidity: 96%   Direction: 120°ESE
Pressure: 30.11"   Gusts: NA
Location:  38.4788°N, 101.052°W
Report Text: KGCK 231429Z 12003KT 1SM BR OVC006 15/14 A3011 RMK AO2 CIG 003V008 T01500144
Loading
Personal Weather Stations






























Interactive Weather Map
Tropical Storm Tracking
New forecast layout! Learn more

10-Day Weather Forecast

Advertisements
Track Severe Weather on mobile